createdAt,value
2019-05-01T00:02:23.169Z,4.67
2019-05-01T00:05:06.178Z,5.30
2019-05-01T00:07:37.149Z,4.73
2019-05-01T00:10:08.039Z,5.03
2019-05-01T00:12:37.767Z,4.77
2019-05-01T00:15:09.070Z,4.87
2019-05-01T00:17:38.844Z,4.57
2019-05-01T00:20:08.568Z,4.53
2019-05-01T00:22:38.215Z,4.67
2019-05-01T00:25:07.785Z,4.87
2019-05-01T00:27:39.071Z,5.37
2019-05-01T00:30:11.442Z,5.03
2019-05-01T00:32:41.098Z,4.67
2019-05-01T00:35:10.764Z,5.03
2019-05-01T00:37:40.393Z,5.20
2019-05-01T00:40:10.037Z,5.27
2019-05-01T00:42:39.773Z,5.23
2019-05-01T00:45:09.452Z,4.83
2019-05-01T00:47:39.177Z,5.07
2019-05-01T00:50:08.925Z,4.87
2019-05-01T00:52:38.549Z,5.40
2019-05-01T00:55:25.983Z,4.87
2019-05-01T00:58:10.090Z,4.80
2019-05-01T01:01:01.591Z,4.43
2019-05-01T01:03:31.271Z,5.27
2019-05-01T01:06:02.530Z,5.00
2019-05-01T01:08:32.325Z,4.93
2019-05-01T01:11:01.901Z,4.77
2019-05-01T01:13:31.509Z,4.67
2019-05-01T01:16:01.122Z,5.07
2019-05-01T01:18:30.865Z,4.73
2019-05-01T01:21:00.521Z,5.20
2019-05-01T01:23:30.178Z,5.00
2019-05-01T01:26:01.358Z,5.07
2019-05-01T01:28:31.044Z,4.63
2019-05-01T01:31:00.691Z,5.13
2019-05-01T01:33:31.919Z,5.33
2019-05-01T01:36:01.596Z,4.83
2019-05-01T01:38:31.252Z,4.80
2019-05-01T01:41:00.907Z,4.90
2019-05-01T01:43:55.876Z,4.60
2019-05-01T01:46:27.581Z,4.93
2019-05-01T01:48:57.272Z,4.93
2019-05-01T01:51:26.886Z,5.30
2019-05-01T01:53:56.519Z,5.50
2019-05-01T01:56:26.408Z,5.30
2019-05-01T01:58:56.106Z,5.40
2019-05-01T02:01:42.701Z,5.30
2019-05-01T02:04:33.683Z,5.30
2019-05-01T02:07:03.283Z,5.47
2019-05-01T02:09:33.021Z,4.57
2019-05-01T02:12:02.657Z,4.87
2019-05-01T02:14:32.267Z,5.33
2019-05-01T02:17:01.869Z,5.50
2019-05-01T02:19:31.472Z,4.87
2019-05-01T02:22:01.079Z,4.60
2019-05-01T02:24:30.703Z,5.90
2019-05-01T02:27:02.231Z,5.57
2019-05-01T02:29:38.136Z,5.20
2019-05-01T02:32:07.809Z,5.20
2019-05-01T02:34:37.489Z,5.43
2019-05-01T02:37:07.245Z,5.27
2019-05-01T02:39:36.896Z,5.50
2019-05-01T02:42:06.617Z,5.17
2019-05-01T02:44:40.554Z,5.20
2019-05-01T02:47:10.951Z,5.40
2019-05-01T02:49:52.554Z,5.53
2019-05-01T02:52:23.871Z,5.27
2019-05-01T02:54:54.390Z,5.53
2019-05-01T02:57:23.991Z,5.53
2019-05-01T02:59:53.692Z,5.50
2019-05-01T03:02:24.611Z,6.27
2019-05-01T03:04:54.932Z,5.43
2019-05-01T03:07:25.335Z,5.87
2019-05-01T03:09:54.921Z,5.30
2019-05-01T03:12:24.572Z,5.93
2019-05-01T03:14:54.181Z,5.10
2019-05-01T03:17:51.975Z,5.17
2019-05-01T03:20:39.481Z,5.00
2019-05-01T03:23:31.997Z,5.20
2019-05-01T03:26:01.824Z,5.37
2019-05-01T03:28:32.029Z,5.47
2019-05-01T03:31:01.804Z,5.20
2019-05-01T03:33:31.430Z,6.50
2019-05-01T03:36:01.123Z,5.33
2019-05-01T03:38:30.832Z,5.40
2019-05-01T03:41:00.563Z,5.97
2019-05-01T03:43:30.179Z,5.60
2019-05-01T03:45:59.797Z,5.37
2019-05-01T03:48:29.471Z,5.33
2019-05-01T03:50:59.144Z,5.73
2019-05-01T03:53:28.816Z,5.57
2019-05-01T03:55:58.454Z,5.60
2019-05-01T03:58:28.209Z,5.53
2019-05-01T04:01:13.635Z,5.90
2019-05-01T04:03:54.911Z,5.60
2019-05-01T04:06:24.520Z,5.60
2019-05-01T04:08:54.133Z,6.10
2019-05-01T04:11:23.795Z,6.40
2019-05-01T04:13:55.065Z,6.40
2019-05-01T04:16:24.746Z,5.27
2019-05-01T04:18:54.435Z,5.87
2019-05-01T04:21:27.249Z,5.53
2019-05-01T04:23:56.845Z,5.87
2019-05-01T04:26:26.436Z,5.73
2019-05-01T04:29:02.838Z,5.47
2019-05-01T04:31:42.419Z,5.40
2019-05-01T04:34:19.042Z,6.57
2019-05-01T04:36:51.947Z,5.90
2019-05-01T04:39:21.652Z,5.43
2019-05-01T04:41:53.374Z,6.00
2019-05-01T04:44:24.450Z,6.07
2019-05-01T04:46:55.312Z,6.20
2019-05-01T04:49:26.422Z,6.33
2019-05-01T04:51:57.520Z,5.40
2019-05-01T04:54:28.426Z,6.37
2019-05-01T04:56:59.402Z,6.17
2019-05-01T04:59:30.505Z,5.77
2019-05-01T05:02:03.005Z,5.10
2019-05-01T05:04:33.120Z,6.13
2019-05-01T05:07:03.342Z,5.90
2019-05-01T05:09:57.434Z,5.77
2019-05-01T05:12:53.017Z,5.97
2019-05-01T05:15:40.078Z,6.10
2019-05-01T05:18:10.938Z,6.03
2019-05-01T05:20:42.221Z,5.93
2019-05-01T05:23:13.553Z,6.10
2019-05-01T05:25:44.487Z,6.53
2019-05-01T05:28:15.374Z,6.00
2019-05-01T05:30:45.899Z,6.13
2019-05-01T05:33:18.447Z,5.97
2019-05-01T05:35:49.670Z,6.43
2019-05-01T05:38:54.451Z,6.40
2019-05-01T05:41:25.349Z,6.53
2019-05-01T05:43:56.611Z,7.00
2019-05-01T05:46:27.950Z,6.60
2019-05-01T05:48:59.263Z,7.30
2019-05-01T05:51:49.088Z,7.13
2019-05-01T05:54:44.811Z,7.30
2019-05-01T05:57:26.725Z,7.13
2019-05-01T06:00:02.948Z,6.97
2019-05-01T06:02:56.536Z,7.43
2019-05-01T06:05:47.135Z,7.43
2019-05-01T06:08:24.488Z,7.50
2019-05-01T06:11:22.318Z,8.13
2019-05-01T06:14:09.932Z,12.63
2019-05-01T06:17:04.910Z,12.73
2019-05-01T06:20:01.260Z,14.93
2019-05-01T06:22:40.837Z,14.30
2019-05-01T06:25:22.327Z,15.13
2019-05-01T06:27:54.045Z,13.63
2019-05-01T06:30:25.901Z,13.10
2019-05-01T06:32:57.356Z,12.10
2019-05-01T06:35:29.318Z,12.33
2019-05-01T06:38:05.715Z,10.70
2019-05-01T06:40:41.331Z,11.30
2019-05-01T06:43:25.364Z,11.87
2019-05-01T06:46:16.599Z,11.43
2019-05-01T06:48:54.702Z,11.00
2019-05-01T06:51:47.926Z,11.90
2019-05-01T06:54:17.757Z,10.37
2019-05-01T06:56:50.091Z,10.60
2019-05-01T06:59:21.623Z,11.27
2019-05-01T07:01:58.333Z,10.03
2019-05-01T07:04:32.450Z,10.23
2019-05-01T07:07:06.785Z,10.60
2019-05-01T07:09:36.694Z,11.00
2019-05-01T07:12:12.200Z,9.80
2019-05-01T07:14:47.139Z,10.87
2019-05-01T07:17:16.536Z,10.70
2019-05-01T07:20:05.598Z,10.27
2019-05-01T07:22:42.346Z,10.90
2019-05-01T07:25:10.436Z,10.47
2019-05-01T07:27:42.029Z,9.83
2019-05-01T07:30:44.405Z,9.73
2019-05-01T07:33:16.588Z,9.40
2019-05-01T07:35:48.940Z,8.87
2019-05-01T07:38:20.560Z,9.13
2019-05-01T07:40:52.160Z,9.57
2019-05-01T07:43:41.115Z,8.83
2019-05-01T07:46:38.785Z,8.27
2019-05-01T07:49:13.009Z,9.50
2019-05-01T07:51:51.756Z,8.60
2019-05-01T07:54:25.314Z,9.20
2019-05-01T07:56:58.776Z,8.97
2019-05-01T07:59:30.620Z,8.23
2019-05-01T08:02:09.958Z,8.47
2019-05-01T08:04:43.423Z,8.73
2019-05-01T08:07:15.930Z,8.03
2019-05-01T08:09:50.331Z,7.67
2019-05-01T08:12:24.122Z,9.00
2019-05-01T08:14:54.506Z,8.50
2019-05-01T08:17:28.074Z,8.47
2019-05-01T08:20:17.202Z,8.57
2019-05-01T08:22:49.303Z,8.27
2019-05-01T08:25:21.248Z,8.70
2019-05-01T08:28:13.979Z,7.57
2019-05-01T08:31:03.617Z,8.57
2019-05-01T08:34:00.098Z,7.40
2019-05-01T08:36:32.790Z,7.80
2019-05-01T08:39:05.027Z,7.83
2019-05-01T08:41:34.080Z,8.07
2019-05-01T08:44:03.958Z,7.60
2019-05-01T08:46:58.866Z,7.90
2019-05-01T08:49:32.200Z,7.40
2019-05-01T08:52:04.863Z,7.60
2019-05-01T08:54:34.931Z,7.43
2019-05-01T08:57:07.685Z,7.90
2019-05-01T08:59:36.311Z,7.27
2019-05-01T09:02:09.369Z,7.40
2019-05-01T09:04:37.519Z,7.17
2019-05-01T09:07:07.165Z,7.60
2019-05-01T09:09:39.676Z,7.40
2019-05-01T09:12:12.012Z,6.40
2019-05-01T09:14:39.689Z,6.83
2019-05-01T09:17:09.339Z,6.63
2019-05-01T09:19:39.093Z,7.80
2019-05-01T09:22:08.903Z,6.50
2019-05-01T09:24:38.615Z,7.57
2019-05-01T09:27:39.722Z,7.13
2019-05-01T09:30:21.708Z,7.60
2019-05-01T09:32:54.346Z,6.70
2019-05-01T09:35:23.411Z,6.13
2019-05-01T09:37:53.147Z,7.70
2019-05-01T09:40:22.855Z,7.37
2019-05-01T09:42:54.778Z,6.53
2019-05-01T09:45:24.017Z,6.67
2019-05-01T09:47:53.799Z,6.03
2019-05-01T09:50:25.974Z,6.87
2019-05-01T09:53:11.726Z,7.20
2019-05-01T09:55:54.400Z,6.40
2019-05-01T09:58:24.006Z,6.63
2019-05-01T10:00:56.845Z,6.93
2019-05-01T10:03:26.477Z,6.07
2019-05-01T10:05:56.142Z,7.07
2019-05-01T10:08:25.842Z,6.67
2019-05-01T10:10:59.787Z,6.70
2019-05-01T10:13:27.004Z,6.53
2019-05-01T10:15:56.658Z,5.97
2019-05-01T10:18:26.726Z,6.67
2019-05-01T10:20:56.618Z,6.30
2019-05-01T10:23:26.300Z,6.80
2019-05-01T10:25:58.034Z,6.30
2019-05-01T10:29:10.347Z,6.37
2019-05-01T10:32:02.483Z,6.20
2019-05-01T10:34:52.054Z,6.07
2019-05-01T10:37:28.516Z,7.63
2019-05-01T10:40:02.433Z,6.13
2019-05-01T10:42:36.443Z,6.20
2019-05-01T10:45:06.411Z,6.60
2019-05-01T10:47:41.439Z,6.87
2019-05-01T10:50:15.539Z,6.73
2019-05-01T10:52:48.936Z,6.17
2019-05-01T10:55:22.812Z,6.27
2019-05-01T10:57:56.503Z,7.00
2019-05-01T11:00:28.684Z,6.40
2019-05-01T11:03:00.632Z,5.70
2019-05-01T11:05:34.307Z,6.00
2019-05-01T11:08:09.215Z,5.73
2019-05-01T11:10:41.348Z,5.67
2019-05-01T11:13:13.619Z,6.43
2019-05-01T11:15:46.296Z,6.20
2019-05-01T11:18:18.330Z,6.00
2019-05-01T11:20:50.055Z,5.80
2019-05-01T11:23:22.800Z,6.17
2019-05-01T11:25:55.277Z,6.40
2019-05-01T11:28:27.808Z,6.13
2019-05-01T11:30:59.909Z,6.10
2019-05-01T11:33:49.657Z,5.77
2019-05-01T11:36:38.928Z,5.90
2019-05-01T11:39:31.053Z,6.43
2019-05-01T11:42:05.785Z,5.97
2019-05-01T11:44:38.563Z,5.77
2019-05-01T11:47:11.263Z,5.80
2019-05-01T11:49:42.578Z,6.23
2019-05-01T11:52:12.289Z,5.67
2019-05-01T11:54:41.933Z,5.83
2019-05-01T11:57:11.565Z,5.47
2019-05-01T11:59:41.184Z,5.63
2019-05-01T12:02:10.927Z,6.03
2019-05-01T12:04:40.670Z,5.87
2019-05-01T12:07:10.342Z,5.10
2019-05-01T12:09:40.159Z,5.63
2019-05-01T12:12:12.632Z,5.27
2019-05-01T12:14:42.300Z,5.30
2019-05-01T12:17:39.986Z,5.10
2019-05-01T12:20:10.441Z,4.93
2019-05-01T12:22:39.998Z,5.37
2019-05-01T12:25:09.635Z,5.37
2019-05-01T12:27:39.249Z,4.73
2019-05-01T12:30:08.944Z,5.40
2019-05-01T12:32:38.660Z,5.43
2019-05-01T12:35:08.282Z,5.40
2019-05-01T12:37:42.445Z,4.53
2019-05-01T12:40:19.739Z,5.43
2019-05-01T12:42:49.452Z,5.10
2019-05-01T12:45:20.603Z,4.87
2019-05-01T12:47:58.165Z,5.30
2019-05-01T12:50:27.739Z,5.40
2019-05-01T12:53:11.861Z,5.17
2019-05-01T12:56:15.793Z,4.60
2019-05-01T12:58:46.606Z,5.33
2019-05-01T13:01:16.312Z,4.93
2019-05-01T13:03:45.962Z,5.13
2019-05-01T13:06:15.654Z,5.23
2019-05-01T13:08:45.379Z,4.93
2019-05-01T13:11:15.058Z,5.10
2019-05-01T13:13:46.390Z,4.37
2019-05-01T13:16:16.004Z,4.73
2019-05-01T13:18:45.604Z,4.50
2019-05-01T13:21:15.300Z,4.70
2019-05-01T13:23:44.881Z,4.07
2019-05-01T13:26:27.718Z,5.57
2019-05-01T13:29:12.421Z,5.23
2019-05-01T13:32:03.959Z,4.37
2019-05-01T13:34:35.271Z,4.30
2019-05-01T13:37:04.943Z,4.70
2019-05-01T13:39:34.700Z,4.57
2019-05-01T13:42:05.427Z,4.30
2019-05-01T13:44:35.079Z,4.03
2019-05-01T13:47:04.635Z,4.70
2019-05-01T13:49:34.259Z,5.40
2019-05-01T13:52:03.863Z,4.63
2019-05-01T13:54:33.538Z,4.70
2019-05-01T13:57:03.156Z,4.63
2019-05-01T13:59:32.830Z,3.97
2019-05-01T14:02:02.542Z,4.10
2019-05-01T14:04:32.480Z,4.90
2019-05-01T14:07:02.166Z,5.20
2019-05-01T14:09:33.508Z,4.40
2019-05-01T14:12:03.201Z,4.40
2019-05-01T14:14:32.908Z,4.90
2019-05-01T14:17:02.592Z,4.63
2019-05-01T14:19:33.544Z,4.33
2019-05-01T14:22:22.337Z,3.97
2019-05-01T14:24:54.952Z,4.30
2019-05-01T14:27:26.214Z,4.17
2019-05-01T14:29:55.784Z,4.37
2019-05-01T14:32:25.528Z,4.63
2019-05-01T14:34:55.151Z,4.60
2019-05-01T14:37:29.671Z,4.10
2019-05-01T14:39:56.097Z,4.13
2019-05-01T14:42:25.894Z,4.20
2019-05-01T14:44:55.511Z,3.97
2019-05-01T14:47:25.255Z,3.90
2019-05-01T14:49:54.911Z,4.47
2019-05-01T14:52:24.562Z,4.50
2019-05-01T14:54:54.263Z,4.50
2019-05-01T14:57:24.171Z,4.10
2019-05-01T14:59:55.561Z,4.30
2019-05-01T15:02:26.912Z,4.37
2019-05-01T15:04:56.607Z,4.53
2019-05-01T15:07:26.343Z,4.10
2019-05-01T15:09:57.652Z,4.07
2019-05-01T15:12:27.465Z,4.03
2019-05-01T15:15:12.584Z,4.50
2019-05-01T15:17:49.356Z,4.20
2019-05-01T15:20:18.959Z,3.57
2019-05-01T15:22:48.732Z,4.10
2019-05-01T15:25:18.454Z,3.70
2019-05-01T15:27:48.269Z,4.47
2019-05-01T15:30:18.759Z,4.10
2019-05-01T15:32:48.422Z,3.70
2019-05-01T15:35:18.043Z,3.83
2019-05-01T15:37:56.362Z,3.60
2019-05-01T15:40:40.888Z,3.80
2019-05-01T15:43:29.569Z,3.90
2019-05-01T15:45:59.306Z,3.93
2019-05-01T15:48:28.930Z,3.77
2019-05-01T15:50:58.588Z,3.93
2019-05-01T15:53:28.284Z,4.10
2019-05-01T15:55:57.992Z,4.20
2019-05-01T15:58:27.659Z,3.67
2019-05-01T16:00:57.378Z,4.13
2019-05-01T16:03:28.055Z,3.70
2019-05-01T16:05:57.755Z,3.80
2019-05-01T16:08:27.466Z,3.40
2019-05-01T16:11:06.869Z,3.83
2019-05-01T16:13:36.508Z,4.10
2019-05-01T16:16:06.224Z,3.80
2019-05-01T16:18:35.929Z,4.10
2019-05-01T16:21:05.617Z,3.73
2019-05-01T16:23:35.343Z,3.33
2019-05-01T16:26:04.975Z,3.77
2019-05-01T16:28:34.618Z,3.63
2019-05-01T16:31:04.478Z,3.73
2019-05-01T16:33:34.315Z,3.90
2019-05-01T16:36:04.176Z,3.60
2019-05-01T16:38:55.680Z,3.57
2019-05-01T16:41:26.270Z,3.37
2019-05-01T16:43:55.887Z,3.80
2019-05-01T16:46:25.546Z,3.50
2019-05-01T16:48:55.176Z,2.90
2019-05-01T16:51:24.992Z,3.63
2019-05-01T16:53:54.723Z,3.43
2019-05-01T16:56:24.449Z,4.10
2019-05-01T16:58:54.149Z,3.40
2019-05-01T17:01:49.005Z,3.80
2019-05-01T17:04:32.536Z,3.37
2019-05-01T17:07:11.222Z,3.30
2019-05-01T17:09:58.631Z,3.30
2019-05-01T17:12:31.608Z,3.13
2019-05-01T17:15:01.404Z,3.07
2019-05-01T17:17:32.041Z,3.77
2019-05-01T17:20:01.652Z,3.20
2019-05-01T17:22:31.483Z,3.20
2019-05-01T17:25:01.200Z,3.50
2019-05-01T17:27:30.967Z,2.97
2019-05-01T17:30:00.624Z,2.87
2019-05-01T17:32:49.878Z,3.17
2019-05-01T17:35:19.702Z,3.57
2019-05-01T17:37:49.419Z,3.10
2019-05-01T17:40:19.269Z,2.93
2019-05-01T17:42:49.057Z,2.83
2019-05-01T17:45:18.974Z,2.90
2019-05-01T17:47:52.720Z,3.60
2019-05-01T17:50:21.094Z,3.30
2019-05-01T17:52:51.624Z,3.63
2019-05-01T17:55:22.945Z,3.10
2019-05-01T17:57:52.838Z,3.23
2019-05-01T18:00:42.696Z,3.37
2019-05-01T18:03:34.706Z,3.00
2019-05-01T18:06:16.886Z,3.07
2019-05-01T18:08:48.571Z,2.93
2019-05-01T18:11:18.576Z,3.23
2019-05-01T18:13:48.516Z,3.00
2019-05-01T18:16:18.546Z,2.97
2019-05-01T18:18:48.602Z,3.23
2019-05-01T18:21:18.576Z,3.30
2019-05-01T18:24:23.297Z,3.10
2019-05-01T18:27:20.425Z,3.60
2019-05-01T18:30:00.071Z,3.00
2019-05-01T18:32:52.394Z,3.20
2019-05-01T18:35:20.633Z,3.37
2019-05-01T18:38:13.026Z,3.03
2019-05-01T18:40:45.514Z,3.20
2019-05-01T18:43:15.579Z,3.03
2019-05-01T18:45:50.295Z,3.00
2019-05-01T18:48:20.257Z,3.50
2019-05-01T18:50:54.884Z,2.90
2019-05-01T18:53:21.747Z,2.80
2019-05-01T18:55:51.844Z,2.90
2019-05-01T18:58:21.632Z,3.20
2019-05-01T19:00:51.538Z,3.20
2019-05-01T19:03:22.541Z,2.97
2019-05-01T19:05:53.186Z,3.03
2019-05-01T19:08:23.042Z,3.37
2019-05-01T19:10:53.012Z,3.13
2019-05-01T19:13:23.018Z,2.90
2019-05-01T19:15:53.553Z,3.33
2019-05-01T19:18:23.438Z,3.27
2019-05-01T19:20:59.783Z,3.20
2019-05-01T19:23:27.917Z,3.03
2019-05-01T19:26:04.948Z,2.83
2019-05-01T19:28:29.208Z,3.07
2019-05-01T19:30:59.160Z,3.17
2019-05-01T19:33:28.938Z,2.90
2019-05-01T19:36:02.552Z,3.03
2019-05-01T19:38:35.061Z,2.87
2019-05-01T19:41:14.001Z,3.30
2019-05-01T19:43:42.119Z,2.63
2019-05-01T19:46:12.703Z,3.07
2019-05-01T19:48:45.399Z,2.80
2019-05-01T19:51:14.149Z,3.23
2019-05-01T19:53:46.453Z,3.10
2019-05-01T19:56:16.714Z,2.83
2019-05-01T19:58:47.654Z,2.53
2019-05-01T20:01:17.630Z,3.17
2019-05-01T20:03:47.505Z,2.83
2019-05-01T20:06:17.300Z,2.90
2019-05-01T20:08:47.019Z,2.90
2019-05-01T20:11:17.101Z,2.93
2019-05-01T20:13:47.071Z,3.50
2019-05-01T20:16:17.803Z,2.80
2019-05-01T20:18:47.697Z,2.90
2019-05-01T20:21:19.383Z,2.90
2019-05-01T20:23:49.163Z,3.30
2019-05-01T20:26:18.933Z,2.90
2019-05-01T20:28:48.815Z,2.73
2019-05-01T20:31:20.397Z,3.10
2019-05-01T20:33:50.261Z,2.63
2019-05-01T20:36:20.539Z,2.90
2019-05-01T20:38:52.311Z,2.40
2019-05-01T20:41:22.397Z,2.70
2019-05-01T20:43:52.030Z,3.07
2019-05-01T20:46:26.129Z,2.77
2019-05-01T20:48:55.905Z,3.37
2019-05-01T20:51:25.026Z,2.93
2019-05-01T20:53:55.020Z,3.50
2019-05-01T20:56:39.007Z,3.17
2019-05-01T20:59:08.841Z,3.37
2019-05-01T21:01:38.828Z,3.60
2019-05-01T21:04:30.792Z,3.23
2019-05-01T21:07:21.288Z,3.23
2019-05-01T21:09:56.879Z,3.10
2019-05-01T21:12:22.894Z,3.07
2019-05-01T21:14:52.732Z,3.60
2019-05-01T21:17:22.421Z,2.80
2019-05-01T21:19:54.339Z,3.47
2019-05-01T21:22:24.705Z,3.27
2019-05-01T21:24:54.716Z,3.00
2019-05-01T21:27:24.532Z,3.63
2019-05-01T21:29:54.490Z,2.80
2019-05-01T21:32:27.470Z,2.90
2019-05-01T21:34:57.167Z,3.70
2019-05-01T21:37:27.195Z,3.00
2019-05-01T21:39:57.092Z,3.20
2019-05-01T21:42:26.878Z,2.93
2019-05-01T21:44:56.840Z,3.00
2019-05-01T21:47:26.638Z,2.80
2019-05-01T21:49:56.430Z,2.70
2019-05-01T21:52:26.951Z,3.10
2019-05-01T21:54:57.470Z,2.93
2019-05-01T21:57:30.069Z,2.90
2019-05-01T21:59:58.891Z,3.00
2019-05-01T22:02:28.729Z,2.90
2019-05-01T22:05:03.855Z,2.70
2019-05-01T22:07:30.055Z,2.70
2019-05-01T22:09:59.773Z,2.80
2019-05-01T22:12:29.566Z,2.70
2019-05-01T22:15:10.907Z,2.83
2019-05-01T22:18:09.394Z,2.90
2019-05-01T22:20:46.785Z,2.70
2019-05-01T22:23:21.889Z,3.03
2019-05-01T22:25:52.926Z,2.73
2019-05-01T22:28:34.467Z,2.47
2019-05-01T22:31:29.513Z,3.00
2019-05-01T22:34:07.836Z,2.70
2019-05-01T22:36:38.715Z,2.97
2019-05-01T22:39:08.792Z,2.57
2019-05-01T22:41:40.648Z,2.40
2019-05-01T22:44:12.842Z,3.13
2019-05-01T22:46:42.311Z,2.53
2019-05-01T22:49:12.279Z,3.40
2019-05-01T22:51:42.103Z,2.93
2019-05-01T22:54:11.940Z,3.10
2019-05-01T22:56:41.625Z,2.90
2019-05-01T22:59:12.445Z,2.70
2019-05-01T23:01:43.877Z,3.30
2019-05-01T23:04:17.299Z,2.60
2019-05-01T23:06:45.622Z,3.10
2019-05-01T23:09:17.274Z,3.30
2019-05-01T23:11:48.853Z,2.73
2019-05-01T23:14:18.758Z,3.10
2019-05-01T23:17:03.343Z,3.13
2019-05-01T23:19:33.690Z,3.30
2019-05-01T23:22:03.478Z,2.93
2019-05-01T23:24:33.244Z,2.77
2019-05-01T23:27:02.940Z,2.80
2019-05-01T23:29:32.826Z,3.00
2019-05-01T23:32:02.652Z,3.10
2019-05-01T23:34:32.420Z,2.90
2019-05-01T23:37:02.112Z,3.20
2019-05-01T23:39:39.735Z,3.23
2019-05-01T23:42:03.508Z,3.17
2019-05-01T23:44:33.240Z,3.00
2019-05-01T23:47:03.045Z,2.93
2019-05-01T23:49:32.731Z,2.80
2019-05-01T23:52:03.341Z,2.80
2019-05-01T23:54:34.224Z,2.83
2019-05-01T23:57:04.053Z,3.00
2019-05-01T23:59:33.764Z,2.93
